createdAt,value
2023-01-11T00:21:28.186Z,41.3
2023-01-11T00:55:30.770Z,41.3
2023-01-11T01:30:32.929Z,40.8
2023-01-11T01:31:32.962Z,40.2
2023-01-11T01:33:33.133Z,40.8
2023-01-11T01:34:33.277Z,39.7
2023-01-11T01:35:33.224Z,40.8
2023-01-11T01:37:33.349Z,40.2
2023-01-11T01:41:33.624Z,40.8
2023-01-11T02:19:36.012Z,40.8
2023-01-11T02:52:38.111Z,39.2
2023-01-11T03:24:40.350Z,41.3
2023-01-11T03:54:42.142Z,41.3
2023-01-11T04:24:43.922Z,41.3
2023-01-11T04:54:45.786Z,41.3
2023-01-11T05:28:47.957Z,42.9
2023-01-11T05:58:49.954Z,42.9
2023-01-11T06:28:51.788Z,42.4
2023-01-11T06:59:53.671Z,41.3
2023-01-11T07:29:55.642Z,41.9
2023-01-11T07:59:57.547Z,42.4
2023-01-11T08:31:59.638Z,44
2023-01-11T09:02:02.005Z,45.6
2023-01-11T09:32:03.632Z,46.2
2023-01-11T10:02:05.504Z,46.2
2023-01-11T10:24:06.970Z,46.2
2023-01-11T12:52:16.000Z,45.1
2023-01-11T13:30:18.501Z,45.6
2023-01-11T14:00:20.400Z,45.1
2023-01-11T14:31:22.393Z,44.5
2023-01-11T15:01:24.287Z,44.5
2023-01-11T15:31:26.035Z,45.1
2023-01-11T16:01:27.884Z,42.4
2023-01-11T16:32:29.837Z,42.9
2023-01-11T17:02:32.117Z,49.4
2023-01-11T17:32:33.998Z,42.4
2023-01-11T18:02:35.988Z,41.3
2023-01-11T18:32:37.890Z,40.8
2023-01-11T19:03:39.905Z,39.2
2023-01-11T19:33:41.682Z,38.1
2023-01-11T20:05:43.683Z,37
2023-01-11T20:35:45.530Z,37.6
2023-01-11T21:10:47.705Z,37
2023-01-11T21:40:49.550Z,36.5
2023-01-11T22:10:51.537Z,38.6
2023-01-11T22:41:53.484Z,38.1
2023-01-11T23:11:55.440Z,38.6
2023-01-11T23:43:57.765Z,36.5
